createdAt,value
2023-03-21T00:00:31.204Z,2.86
2023-03-21T00:02:57.706Z,2.94
2023-03-21T00:05:24.335Z,2.99
2023-03-21T00:07:51.924Z,3.04
2023-03-21T00:10:29.733Z,3.11
2023-03-21T00:13:05.743Z,3.19
2023-03-21T00:15:42.666Z,3.26
2023-03-21T00:18:12.808Z,3.29
2023-03-21T00:20:39.353Z,3.29
2023-03-21T00:23:06.109Z,3.32
2023-03-21T00:25:33.154Z,3.28
2023-03-21T00:28:07.878Z,3.27
2023-03-21T00:30:35.124Z,3.30
2023-03-21T00:33:12.121Z,3.30
2023-03-21T00:35:58.306Z,3.30
2023-03-21T00:38:29.163Z,3.36
2023-03-21T00:40:58.240Z,3.37
2023-03-21T00:43:30.038Z,3.33
2023-03-21T00:45:58.517Z,3.33
2023-03-21T00:48:26.106Z,3.32
2023-03-21T00:50:54.535Z,3.28
2023-03-21T00:53:21.893Z,3.28
2023-03-21T00:55:48.809Z,3.24
2023-03-21T00:58:16.910Z,3.19
2023-03-21T01:00:43.817Z,3.18
2023-03-21T01:03:23.689Z,3.15
2023-03-21T01:06:07.412Z,3.07
2023-03-21T01:08:50.535Z,3.04
2023-03-21T01:11:20.973Z,3.01
2023-03-21T01:13:54.711Z,3.00
2023-03-21T01:16:25.414Z,2.98
2023-03-21T01:18:52.033Z,2.98
2023-03-21T01:21:18.615Z,2.94
2023-03-21T01:23:46.018Z,2.87
2023-03-21T01:26:14.080Z,2.88
2023-03-21T01:28:42.835Z,2.88
2023-03-21T01:31:12.741Z,2.87
2023-03-21T01:33:39.814Z,2.83
2023-03-21T01:36:13.260Z,2.83
2023-03-21T01:38:41.594Z,2.84
2023-03-21T01:41:19.226Z,2.82
2023-03-21T01:43:47.344Z,2.78
2023-03-21T01:46:26.278Z,2.78
2023-03-21T01:49:02.611Z,2.77
2023-03-21T01:51:32.839Z,2.73
2023-03-21T01:54:00.647Z,2.70
2023-03-21T01:56:37.447Z,2.77
2023-03-21T01:59:14.697Z,2.78
2023-03-21T02:01:42.404Z,2.78
2023-03-21T02:04:09.661Z,2.79
2023-03-21T02:06:52.231Z,2.83
2023-03-21T02:09:24.952Z,2.81
2023-03-21T02:11:52.412Z,2.76
2023-03-21T02:14:28.949Z,2.73
2023-03-21T02:17:05.264Z,2.68
2023-03-21T02:19:53.025Z,2.68
2023-03-21T02:22:24.390Z,2.63
2023-03-21T02:25:08.374Z,2.58
2023-03-21T02:28:09.922Z,2.53
2023-03-21T02:31:17.991Z,2.48
2023-03-21T02:34:00.041Z,2.41
2023-03-21T02:36:57.363Z,2.39
2023-03-21T02:39:38.586Z,2.33
2023-03-21T02:42:20.449Z,2.30
2023-03-21T02:45:09.611Z,2.29
2023-03-21T02:47:52.622Z,2.26
2023-03-21T02:50:32.066Z,2.25
2023-03-21T02:53:00.933Z,2.26
2023-03-21T02:55:31.044Z,2.21
2023-03-21T02:58:11.701Z,2.20
2023-03-21T03:00:40.143Z,2.16
2023-03-21T03:03:11.383Z,2.12
2023-03-21T03:05:55.758Z,2.09
2023-03-21T03:08:50.077Z,2.06
2023-03-21T03:11:29.701Z,2.06
2023-03-21T03:14:35.621Z,2.06
2023-03-21T03:17:23.291Z,2.02
2023-03-21T03:20:15.529Z,1.99
2023-03-21T03:22:54.000Z,1.93
2023-03-21T03:25:42.199Z,1.90
2023-03-21T03:28:10.773Z,1.85
2023-03-21T03:30:46.585Z,1.90
2023-03-21T03:33:17.923Z,1.90
2023-03-21T03:35:53.041Z,1.96
2023-03-21T03:38:31.716Z,1.99
2023-03-21T03:41:04.570Z,1.97
2023-03-21T03:43:46.888Z,2.01
2023-03-21T03:46:36.687Z,1.99
2023-03-21T03:49:21.593Z,1.97
2023-03-21T03:52:12.080Z,1.92
2023-03-21T03:54:43.077Z,1.88
2023-03-21T03:57:11.889Z,1.87
2023-03-21T03:59:40.653Z,1.90
2023-03-21T04:02:07.720Z,1.94
2023-03-21T04:04:35.123Z,1.99
2023-03-21T04:07:03.566Z,1.98
2023-03-21T04:09:43.067Z,1.95
2023-03-21T04:12:12.812Z,1.99
2023-03-21T04:14:45.578Z,2.05
2023-03-21T04:17:13.789Z,1.99
2023-03-21T04:19:40.306Z,2.03
2023-03-21T04:22:07.336Z,2.03
2023-03-21T04:24:34.337Z,2.11
2023-03-21T04:27:01.092Z,2.10
2023-03-21T04:29:29.855Z,2.08
2023-03-21T04:31:56.896Z,2.09
2023-03-21T04:34:27.966Z,2.12
2023-03-21T04:36:55.371Z,2.13
2023-03-21T04:39:22.251Z,2.14
2023-03-21T04:41:49.641Z,2.18
2023-03-21T04:44:17.442Z,2.23
2023-03-21T04:46:44.119Z,2.32
2023-03-21T04:49:10.873Z,2.36
2023-03-21T04:51:37.918Z,2.46
2023-03-21T04:54:05.926Z,2.55
2023-03-21T04:56:33.795Z,2.63
2023-03-21T04:59:02.817Z,2.74
2023-03-21T05:01:32.124Z,2.80
2023-03-21T05:03:59.908Z,2.88
2023-03-21T05:06:27.794Z,2.92
2023-03-21T05:08:56.735Z,3.00
2023-03-21T05:11:23.364Z,3.06
2023-03-21T05:13:49.956Z,3.08
2023-03-21T05:16:16.595Z,3.15
2023-03-21T05:18:43.216Z,3.22
2023-03-21T05:21:10.755Z,3.26
2023-03-21T05:23:38.387Z,3.30
2023-03-21T05:26:08.583Z,3.37
2023-03-21T05:28:36.743Z,3.42
2023-03-21T05:31:04.430Z,3.49
2023-03-21T05:33:31.203Z,3.55
2023-03-21T05:35:58.196Z,3.63
2023-03-21T05:38:25.795Z,3.65
2023-03-21T05:40:54.528Z,3.69
2023-03-21T05:43:21.125Z,3.73
2023-03-21T05:45:48.405Z,3.80
2023-03-21T05:48:15.396Z,3.87
2023-03-21T05:50:42.355Z,3.95
2023-03-21T05:53:09.463Z,4.00
2023-03-21T05:55:36.791Z,4.10
2023-03-21T05:58:03.901Z,4.18
2023-03-21T06:00:30.850Z,4.26
2023-03-21T06:02:57.432Z,4.33
2023-03-21T06:05:23.976Z,4.39
2023-03-21T06:07:50.637Z,4.46
2023-03-21T06:10:17.228Z,4.55
2023-03-21T06:12:43.853Z,4.61
2023-03-21T06:15:10.883Z,4.63
2023-03-21T06:17:37.415Z,4.71
2023-03-21T06:20:05.412Z,4.80
2023-03-21T06:22:32.680Z,4.86
2023-03-21T06:24:59.289Z,4.90
2023-03-21T06:27:25.863Z,5.01
2023-03-21T06:29:52.939Z,5.03
2023-03-21T06:32:19.822Z,5.14
2023-03-21T06:34:47.215Z,5.19
2023-03-21T06:37:13.745Z,5.27
2023-03-21T06:39:40.315Z,5.33
2023-03-21T06:42:06.949Z,5.43
2023-03-21T06:44:33.559Z,5.49
2023-03-21T06:47:00.126Z,5.52
2023-03-21T06:49:27.467Z,5.54
2023-03-21T06:51:54.328Z,5.59
2023-03-21T06:54:21.062Z,5.69
2023-03-21T06:56:47.713Z,5.77
2023-03-21T06:59:14.536Z,5.85
2023-03-21T07:01:41.126Z,5.91
2023-03-21T07:04:07.761Z,5.99
2023-03-21T07:06:34.451Z,6.03
2023-03-21T07:09:03.027Z,6.07
2023-03-21T07:11:29.566Z,6.19
2023-03-21T07:13:56.207Z,6.28
2023-03-21T07:16:22.853Z,6.42
2023-03-21T07:18:49.467Z,6.51
2023-03-21T07:21:16.370Z,6.65
2023-03-21T07:23:42.941Z,6.81
2023-03-21T07:26:09.848Z,6.94
2023-03-21T07:28:36.858Z,7.07
2023-03-21T07:31:06.470Z,7.21
2023-03-21T07:33:33.988Z,7.40
2023-03-21T07:36:01.941Z,7.58
2023-03-21T07:38:30.653Z,7.76
2023-03-21T07:40:58.982Z,7.91
2023-03-21T07:43:25.684Z,7.98
2023-03-21T07:45:57.246Z,7.98
2023-03-21T07:48:24.116Z,7.88
2023-03-21T07:50:51.145Z,7.78
2023-03-21T07:53:17.754Z,7.76
2023-03-21T07:55:44.322Z,7.68
2023-03-21T07:58:11.186Z,7.74
2023-03-21T08:00:37.709Z,7.85
2023-03-21T08:03:04.350Z,7.84
2023-03-21T08:05:35.609Z,7.95
2023-03-21T08:08:02.768Z,7.97
2023-03-21T08:10:29.641Z,8.13
2023-03-21T08:12:56.447Z,8.18
2023-03-21T08:15:23.045Z,8.22
2023-03-21T08:17:49.818Z,8.27
2023-03-21T08:20:22.354Z,8.34
2023-03-21T08:22:49.689Z,8.41
2023-03-21T08:25:19.403Z,8.51
2023-03-21T08:27:46.921Z,8.55
2023-03-21T08:30:15.810Z,8.69
2023-03-21T08:32:42.901Z,8.79
2023-03-21T08:35:12.148Z,8.84
2023-03-21T08:37:40.895Z,8.84
2023-03-21T08:40:11.455Z,8.92
2023-03-21T08:42:39.420Z,9.07
2023-03-21T08:45:07.157Z,9.19
2023-03-21T08:47:33.703Z,9.25
2023-03-21T08:50:00.367Z,9.39
2023-03-21T08:52:27.637Z,9.41
2023-03-21T08:54:54.581Z,9.46
2023-03-21T08:57:21.364Z,9.58
2023-03-21T08:59:47.945Z,9.63
2023-03-21T09:02:16.211Z,9.74
2023-03-21T09:04:43.957Z,9.82
2023-03-21T09:07:12.518Z,9.90
2023-03-21T09:09:39.436Z,9.95
2023-03-21T09:12:06.180Z,10.09
2023-03-21T09:14:33.352Z,10.17
2023-03-21T09:17:00.337Z,10.25
2023-03-21T09:19:27.891Z,10.50
2023-03-21T09:21:55.795Z,10.62
2023-03-21T09:24:22.842Z,10.77
2023-03-21T09:26:51.864Z,10.83
2023-03-21T09:29:20.956Z,10.94
2023-03-21T09:31:48.236Z,11.06
2023-03-21T09:34:15.831Z,11.33
2023-03-21T09:36:44.367Z,11.41
2023-03-21T09:39:12.736Z,11.56
2023-03-21T09:42:06.602Z,11.64
2023-03-21T09:44:54.258Z,11.72
2023-03-21T09:47:33.139Z,11.86
2023-03-21T09:50:14.072Z,11.98
2023-03-21T09:53:01.531Z,12.05
2023-03-21T09:55:31.926Z,12.15
2023-03-21T09:58:09.488Z,12.16
2023-03-21T10:00:45.696Z,12.26
2023-03-21T10:03:35.163Z,12.54
2023-03-21T10:06:10.033Z,12.59
2023-03-21T10:08:43.220Z,12.75
2023-03-21T10:11:19.620Z,12.79
2023-03-21T10:13:55.378Z,13.08
2023-03-21T10:16:36.292Z,12.97
2023-03-21T10:19:13.128Z,13.04
2023-03-21T10:22:03.467Z,13.20
2023-03-21T10:24:34.037Z,13.28
2023-03-21T10:27:02.615Z,13.35
2023-03-21T10:29:39.004Z,13.48
2023-03-21T10:32:09.844Z,13.76
2023-03-21T10:34:41.808Z,13.72
2023-03-21T10:37:08.758Z,13.72
2023-03-21T10:39:39.698Z,13.77
2023-03-21T10:42:06.939Z,13.94
2023-03-21T10:44:35.607Z,14.04
2023-03-21T10:47:08.204Z,14.16
2023-03-21T10:49:56.388Z,14.52
2023-03-21T10:52:28.649Z,14.38
2023-03-21T10:55:21.632Z,14.66
2023-03-21T10:57:53.142Z,14.74
2023-03-21T11:00:25.697Z,16.14
2023-03-21T11:02:53.965Z,18.63
2023-03-21T11:05:27.362Z,21.12
2023-03-21T11:08:11.756Z,22.26
2023-03-21T11:10:51.556Z,23.55
2023-03-21T11:13:24.525Z,24.88
2023-03-21T11:15:56.621Z,25.83
2023-03-21T11:18:30.984Z,26.81
2023-03-21T11:21:03.775Z,26.90
2023-03-21T11:23:34.207Z,27.17
2023-03-21T11:26:02.942Z,27.24
2023-03-21T11:28:37.662Z,27.53
2023-03-21T11:31:06.829Z,27.27
2023-03-21T11:33:51.049Z,26.27
2023-03-21T11:36:20.785Z,25.55
2023-03-21T11:38:53.092Z,23.70
2023-03-21T11:41:25.616Z,22.81
2023-03-21T11:43:53.599Z,21.61
2023-03-21T11:46:25.638Z,20.97
2023-03-21T11:48:52.882Z,20.10
2023-03-21T11:51:41.238Z,19.48
2023-03-21T11:54:23.833Z,18.81
2023-03-21T11:56:58.908Z,18.77
2023-03-21T11:59:42.961Z,18.53
2023-03-21T12:02:28.219Z,18.30
2023-03-21T12:04:58.861Z,18.26
2023-03-21T12:07:34.504Z,18.36
2023-03-21T12:10:10.751Z,18.46
2023-03-21T12:12:47.376Z,19.04
2023-03-21T12:15:16.876Z,19.26
2023-03-21T12:18:08.023Z,19.18
2023-03-21T12:20:37.491Z,20.62
2023-03-21T12:23:12.892Z,22.35
2023-03-21T12:26:03.545Z,23.21
2023-03-21T12:28:42.986Z,23.75
2023-03-21T12:31:25.592Z,23.57
2023-03-21T12:34:12.584Z,22.72
2023-03-21T12:37:17.814Z,21.46
2023-03-21T12:39:47.818Z,20.75
2023-03-21T12:42:35.781Z,20.12
2023-03-21T12:45:15.865Z,19.47
2023-03-21T12:47:48.639Z,18.85
2023-03-21T12:50:37.941Z,18.28
2023-03-21T12:53:27.101Z,17.92
2023-03-21T12:55:57.477Z,17.51
2023-03-21T12:58:28.270Z,16.99
2023-03-21T13:00:58.408Z,16.89
2023-03-21T13:03:39.934Z,16.66
2023-03-21T13:06:10.724Z,16.38
2023-03-21T13:08:42.036Z,16.36
2023-03-21T13:11:13.882Z,16.33
2023-03-21T13:13:51.726Z,16.16
2023-03-21T13:16:24.076Z,16.17
2023-03-21T13:18:54.702Z,16.25
2023-03-21T13:21:21.197Z,16.07
2023-03-21T13:24:22.932Z,15.89
2023-03-21T13:27:00.721Z,15.61
2023-03-21T13:29:44.333Z,15.37
2023-03-21T13:32:29.745Z,15.17
2023-03-21T13:35:15.694Z,14.90
2023-03-21T13:37:49.105Z,14.63
2023-03-21T13:40:29.118Z,14.45
2023-03-21T13:42:59.909Z,14.27
2023-03-21T13:45:44.761Z,14.03
2023-03-21T13:48:32.074Z,13.73
2023-03-21T13:51:04.134Z,13.52
2023-03-21T13:53:37.985Z,13.15
2023-03-21T13:56:22.504Z,12.85
2023-03-21T13:58:48.971Z,12.60
2023-03-21T14:01:35.713Z,12.30
2023-03-21T14:04:12.353Z,11.94
2023-03-21T14:07:12.759Z,11.60
2023-03-21T14:09:40.787Z,11.38
2023-03-21T14:12:14.025Z,11.22
2023-03-21T14:14:45.908Z,11.12
2023-03-21T14:17:13.618Z,11.01
2023-03-21T14:19:40.325Z,10.97
2023-03-21T14:22:13.668Z,10.88
2023-03-21T14:24:41.308Z,10.86
2023-03-21T14:27:08.819Z,10.81
2023-03-21T14:29:35.870Z,10.77
2023-03-21T14:32:03.693Z,10.73
2023-03-21T14:34:34.690Z,10.68
2023-03-21T14:37:01.211Z,10.65
2023-03-21T14:39:33.162Z,10.63
2023-03-21T14:42:09.338Z,10.63
2023-03-21T14:44:54.809Z,10.65
2023-03-21T14:47:24.368Z,10.68
2023-03-21T14:49:51.345Z,10.71
2023-03-21T14:52:34.343Z,10.71
2023-03-21T14:55:02.606Z,10.72
2023-03-21T14:57:32.414Z,10.74
2023-03-21T15:00:02.265Z,10.72
2023-03-21T15:02:38.735Z,10.69
2023-03-21T15:05:33.241Z,10.66
2023-03-21T15:08:11.632Z,10.60
2023-03-21T15:10:38.831Z,10.54
2023-03-21T15:13:18.664Z,10.49
2023-03-21T15:15:46.077Z,10.48
2023-03-21T15:18:17.488Z,10.43
2023-03-21T15:20:48.412Z,10.44
2023-03-21T15:23:30.311Z,10.43
2023-03-21T15:25:57.222Z,10.38
2023-03-21T15:28:25.998Z,10.37
2023-03-21T15:30:53.602Z,10.34
2023-03-21T15:33:23.279Z,10.29
2023-03-21T15:35:54.138Z,10.26
2023-03-21T15:38:41.120Z,10.22
2023-03-21T15:41:34.632Z,10.20
2023-03-21T15:44:14.705Z,10.15
2023-03-21T15:46:48.277Z,10.14
2023-03-21T15:49:14.843Z,10.13
2023-03-21T15:51:44.870Z,10.11
2023-03-21T15:54:16.253Z,10.09
2023-03-21T15:56:46.114Z,10.05
2023-03-21T15:59:18.125Z,10.01
2023-03-21T16:01:49.681Z,9.99
2023-03-21T16:04:18.489Z,9.98
2023-03-21T16:07:16.048Z,9.95
2023-03-21T16:09:46.139Z,9.94
2023-03-21T16:12:16.001Z,9.93
2023-03-21T16:14:43.643Z,9.92
2023-03-21T16:17:28.972Z,9.89
2023-03-21T16:19:55.843Z,9.85
2023-03-21T16:22:22.518Z,9.85
2023-03-21T16:24:49.437Z,9.84
2023-03-21T16:27:17.532Z,9.81
2023-03-21T16:29:44.089Z,9.82
2023-03-21T16:32:17.091Z,9.81
2023-03-21T16:34:44.729Z,9.77
2023-03-21T16:37:12.206Z,9.79
2023-03-21T16:39:39.305Z,9.79
2023-03-21T16:42:05.921Z,9.80
2023-03-21T16:44:33.768Z,9.78
2023-03-21T16:47:02.376Z,9.77
2023-03-21T16:49:29.140Z,9.76
2023-03-21T16:51:57.143Z,9.75
2023-03-21T16:54:23.745Z,9.74
2023-03-21T16:56:55.151Z,9.73
2023-03-21T16:59:22.323Z,9.73
2023-03-21T17:01:49.139Z,9.70
2023-03-21T17:04:17.221Z,9.68
2023-03-21T17:06:50.069Z,9.62
2023-03-21T17:09:19.975Z,9.55
2023-03-21T17:11:47.019Z,9.53
2023-03-21T17:14:16.875Z,9.49
2023-03-21T17:16:43.970Z,9.44
2023-03-21T17:19:20.662Z,9.40
2023-03-21T17:21:47.499Z,9.32
2023-03-21T17:24:14.089Z,9.27
2023-03-21T17:26:40.733Z,9.24
2023-03-21T17:29:07.415Z,9.19
2023-03-21T17:31:38.031Z,9.13
2023-03-21T17:34:04.721Z,9.05
2023-03-21T17:36:37.274Z,9.00
2023-03-21T17:39:06.869Z,8.97
2023-03-21T17:41:33.850Z,8.91
2023-03-21T17:44:00.706Z,8.87
2023-03-21T17:46:29.098Z,8.83
2023-03-21T17:48:56.743Z,8.80
2023-03-21T17:51:26.077Z,8.78
2023-03-21T17:53:52.796Z,8.75
2023-03-21T17:56:26.414Z,8.72
2023-03-21T17:58:53.990Z,8.71
2023-03-21T18:01:20.924Z,8.67
2023-03-21T18:03:47.508Z,8.67
2023-03-21T18:06:20.870Z,8.66
2023-03-21T18:08:48.268Z,8.66
2023-03-21T18:11:16.781Z,8.64
2023-03-21T18:13:44.731Z,8.60
2023-03-21T18:16:20.537Z,8.56
2023-03-21T18:18:47.252Z,8.53
2023-03-21T18:21:18.212Z,8.49
2023-03-21T18:23:46.558Z,8.47
2023-03-21T18:26:17.059Z,8.45
2023-03-21T18:28:44.850Z,8.44
2023-03-21T18:31:19.810Z,8.43
2023-03-21T18:33:48.583Z,8.40
2023-03-21T18:36:24.833Z,8.39
2023-03-21T18:38:52.621Z,8.35
2023-03-21T18:41:19.835Z,8.32
2023-03-21T18:44:04.659Z,8.30
2023-03-21T18:46:33.488Z,8.28
2023-03-21T18:49:13.125Z,8.27
2023-03-21T18:51:47.939Z,8.26
2023-03-21T18:54:15.541Z,8.24
2023-03-21T18:59:39.038Z,8.24
2023-03-21T19:02:06.510Z,8.23
2023-03-21T19:04:34.223Z,8.23
2023-03-21T19:07:01.085Z,8.22
2023-03-21T19:09:31.639Z,8.23
2023-03-21T19:11:58.890Z,8.23
2023-03-21T19:14:25.518Z,8.23
2023-03-21T19:19:39.507Z,8.23
2023-03-21T19:22:06.335Z,8.23
2023-03-21T19:24:32.914Z,8.23
2023-03-21T19:26:59.532Z,8.22
2023-03-21T19:29:26.184Z,8.21
2023-03-21T19:31:53.026Z,8.22
2023-03-21T19:34:20.787Z,8.20
2023-03-21T19:36:51.613Z,8.18
2023-03-21T19:39:22.287Z,8.19
2023-03-21T19:41:50.209Z,8.21
2023-03-21T19:44:16.958Z,8.21
2023-03-21T19:46:43.652Z,8.21
2023-03-21T19:49:11.063Z,8.19
2023-03-21T19:51:37.689Z,8.13
2023-03-21T19:54:05.978Z,8.16
2023-03-21T19:56:34.519Z,8.16
2023-03-21T19:59:02.969Z,8.17
2023-03-21T20:01:30.479Z,8.19
2023-03-21T20:03:57.128Z,8.22
2023-03-21T20:06:24.309Z,8.22
2023-03-21T20:11:41.147Z,8.20
2023-03-21T20:14:07.792Z,8.20
2023-03-21T20:16:36.624Z,8.21
2023-03-21T20:19:05.952Z,8.21
2023-03-21T20:21:42.243Z,8.18
2023-03-21T20:24:12.964Z,8.17
2023-03-21T20:26:39.779Z,8.17
2023-03-21T20:29:56.430Z,8.17
2023-03-21T20:31:55.712Z,8.20
2023-03-21T20:34:22.234Z,8.20
2023-03-21T20:36:49.084Z,8.22
2023-03-21T20:39:15.953Z,8.23
2023-03-21T20:41:42.529Z,8.24
2023-03-21T20:46:57.274Z,8.22
2023-03-21T20:49:24.342Z,8.23
2023-03-21T20:52:49.395Z,8.23
2023-03-21T20:54:37.580Z,8.22
2023-03-21T20:57:04.880Z,8.21
2023-03-21T20:59:31.511Z,8.17
2023-03-21T21:01:58.581Z,8.16
2023-03-21T21:04:46.730Z,8.17
2023-03-21T21:07:17.201Z,8.16
2023-03-21T21:09:44.923Z,8.10
2023-03-21T21:12:13.181Z,8.06
2023-03-21T21:14:40.829Z,8.03
2023-03-21T21:17:46.952Z,7.98
2023-03-21T21:19:54.529Z,7.93
2023-03-21T21:22:21.189Z,7.88
2023-03-21T21:24:48.013Z,7.82
2023-03-21T21:27:14.587Z,7.79
2023-03-21T21:29:43.288Z,7.76
2023-03-21T21:32:11.202Z,7.77
2023-03-21T21:34:38.275Z,7.74
2023-03-21T21:37:05.163Z,7.72
2023-03-21T21:39:37.802Z,7.67
2023-03-21T21:42:05.250Z,7.69
2023-03-21T21:44:33.139Z,7.71
2023-03-21T21:46:59.853Z,7.73
2023-03-21T21:49:27.003Z,7.71
2023-03-21T21:51:53.629Z,7.72
2023-03-21T21:54:20.183Z,7.76
2023-03-21T21:56:48.604Z,7.76
2023-03-21T21:59:18.310Z,7.77
2023-03-21T22:01:46.630Z,7.82
2023-03-21T22:04:14.576Z,7.85
2023-03-21T22:06:42.310Z,7.84
2023-03-21T22:09:09.633Z,7.83
2023-03-21T22:11:36.707Z,7.83
2023-03-21T22:14:03.700Z,7.82
2023-03-21T22:16:30.682Z,7.85
2023-03-21T22:18:57.323Z,7.87
2023-03-21T22:21:24.008Z,7.90
2023-03-21T22:23:50.597Z,7.91
2023-03-21T22:26:17.205Z,7.89
2023-03-21T22:28:43.803Z,7.90
2023-03-21T22:31:13.298Z,7.90
2023-03-21T22:33:39.999Z,7.90
2023-03-21T22:36:06.969Z,7.89
2023-03-21T22:38:34.497Z,7.90
2023-03-21T22:41:05.349Z,7.89
2023-03-21T22:43:34.124Z,7.86
2023-03-21T22:46:02.481Z,7.83
2023-03-21T22:48:32.726Z,7.79
2023-03-21T22:51:00.531Z,7.80
2023-03-21T22:53:27.128Z,7.78
2023-03-21T22:55:53.982Z,7.79
2023-03-21T22:58:20.794Z,7.79
2023-03-21T23:00:47.447Z,7.80
2023-03-21T23:03:16.648Z,7.79
2023-03-21T23:05:44.706Z,7.78
2023-03-21T23:08:11.689Z,7.75
2023-03-21T23:10:40.453Z,7.77
2023-03-21T23:13:07.146Z,7.77
2023-03-21T23:15:33.775Z,7.76
2023-03-21T23:18:00.412Z,7.75
2023-03-21T23:20:26.986Z,7.74
2023-03-21T23:22:53.549Z,7.72
2023-03-21T23:25:20.601Z,7.73
2023-03-21T23:27:47.388Z,7.71
2023-03-21T23:30:14.147Z,7.69
2023-03-21T23:32:40.823Z,7.68
2023-03-21T23:35:08.230Z,7.61
2023-03-21T23:37:34.763Z,7.61
2023-03-21T23:40:01.351Z,7.59
2023-03-21T23:42:29.217Z,7.58
2023-03-21T23:44:56.074Z,7.61
2023-03-21T23:47:22.729Z,7.60
2023-03-21T23:49:50.118Z,7.58
2023-03-21T23:52:16.692Z,7.56
2023-03-21T23:54:43.446Z,7.54
2023-03-21T23:57:11.034Z,7.52
2023-03-21T23:59:37.607Z,7.48
